sensor_id;sensor_type;location;lat;lon;timestamp;temperature;humidity
4578;DHT22;2301;47.354;8.528;2024-01-27T00:00:17;14.00;83.50
4578;DHT22;2301;47.354;8.528;2024-01-27T00:02:44;13.90;83.30
4578;DHT22;2301;47.354;8.528;2024-01-27T00:05:11;13.90;83.50
4578;DHT22;2301;47.354;8.528;2024-01-27T00:07:39;13.90;83.20
4578;DHT22;2301;47.354;8.528;2024-01-27T00:10:07;13.90;83.90
4578;DHT22;2301;47.354;8.528;2024-01-27T00:12:34;13.90;83.10
4578;DHT22;2301;47.354;8.528;2024-01-27T00:15:01;13.90;83.40
4578;DHT22;2301;47.354;8.528;2024-01-27T00:17:28;13.90;83.00
4578;DHT22;2301;47.354;8.528;2024-01-27T00:19:55;13.80;82.80
4578;DHT22;2301;47.354;8.528;2024-01-27T00:22:22;13.80;82.90
4578;DHT22;2301;47.354;8.528;2024-01-27T00:24:50;13.80;83.00
4578;DHT22;2301;47.354;8.528;2024-01-27T00:27:17;13.80;83.00
4578;DHT22;2301;47.354;8.528;2024-01-27T00:29:44;13.80;82.80
4578;DHT22;2301;47.354;8.528;2024-01-27T00:32:11;13.80;83.00
4578;DHT22;2301;47.354;8.528;2024-01-27T00:34:38;13.80;82.90
4578;DHT22;2301;47.354;8.528;2024-01-27T00:37:05;13.80;82.70
4578;DHT22;2301;47.354;8.528;2024-01-27T00:39:32;13.80;82.60
4578;DHT22;2301;47.354;8.528;2024-01-27T00:42:00;13.90;83.80
4578;DHT22;2301;47.354;8.528;2024-01-27T00:44:27;13.90;82.90
4578;DHT22;2301;47.354;8.528;2024-01-27T00:46:54;13.90;82.60
4578;DHT22;2301;47.354;8.528;2024-01-27T00:49:21;14.00;82.20
4578;DHT22;2301;47.354;8.528;2024-01-27T00:51:48;13.90;81.80
4578;DHT22;2301;47.354;8.528;2024-01-27T00:54:15;13.90;81.70
4578;DHT22;2301;47.354;8.528;2024-01-27T00:56:41;13.80;81.50
4578;DHT22;2301;47.354;8.528;2024-01-27T00:59:10;13.90;82.30
4578;DHT22;2301;47.354;8.528;2024-01-27T01:01:37;13.90;81.90
4578;DHT22;2301;47.354;8.528;2024-01-27T01:04:03;13.90;82.10
4578;DHT22;2301;47.354;8.528;2024-01-27T01:06:30;13.90;82.10
4578;DHT22;2301;47.354;8.528;2024-01-27T01:08:57;14.00;82.40
4578;DHT22;2301;47.354;8.528;2024-01-27T01:11:24;14.00;81.80
4578;DHT22;2301;47.354;8.528;2024-01-27T01:13:51;14.00;81.80
4578;DHT22;2301;47.354;8.528;2024-01-27T01:16:19;14.00;81.60
4578;DHT22;2301;47.354;8.528;2024-01-27T01:18:46;14.00;81.60
4578;DHT22;2301;47.354;8.528;2024-01-27T01:21:13;14.00;81.20
4578;DHT22;2301;47.354;8.528;2024-01-27T01:23:40;14.00;80.60
4578;DHT22;2301;47.354;8.528;2024-01-27T01:26:07;13.90;80.30
4578;DHT22;2301;47.354;8.528;2024-01-27T01:28:34;13.90;80.50
4578;DHT22;2301;47.354;8.528;2024-01-27T01:31:01;13.80;80.50
4578;DHT22;2301;47.354;8.528;2024-01-27T01:33:29;13.80;80.50
4578;DHT22;2301;47.354;8.528;2024-01-27T01:35:56;13.80;80.40
4578;DHT22;2301;47.354;8.528;2024-01-27T01:38:23;13.80;80.20
4578;DHT22;2301;47.354;8.528;2024-01-27T01:40:49;13.70;79.70
4578;DHT22;2301;47.354;8.528;2024-01-27T01:43:16;13.80;80.20
4578;DHT22;2301;47.354;8.528;2024-01-27T01:45:43;13.80;80.00
4578;DHT22;2301;47.354;8.528;2024-01-27T01:48:10;13.80;79.80
4578;DHT22;2301;47.354;8.528;2024-01-27T01:50:39;13.80;79.40
4578;DHT22;2301;47.354;8.528;2024-01-27T01:53:06;13.80;79.70
4578;DHT22;2301;47.354;8.528;2024-01-27T01:55:33;13.80;79.40
4578;DHT22;2301;47.354;8.528;2024-01-27T01:58:00;13.80;79.00
4578;DHT22;2301;47.354;8.528;2024-01-27T02:00:27;13.80;79.20
4578;DHT22;2301;47.354;8.528;2024-01-27T02:02:54;13.80;79.40
4578;DHT22;2301;47.354;8.528;2024-01-27T02:05:21;13.80;78.80
4578;DHT22;2301;47.354;8.528;2024-01-27T02:07:49;13.80;78.70
4578;DHT22;2301;47.354;8.528;2024-01-27T02:10:17;13.80;78.80
4578;DHT22;2301;47.354;8.528;2024-01-27T02:12:44;13.80;78.50
4578;DHT22;2301;47.354;8.528;2024-01-27T02:15:11;13.80;78.60
4578;DHT22;2301;47.354;8.528;2024-01-27T02:17:39;13.70;77.70
4578;DHT22;2301;47.354;8.528;2024-01-27T02:20:09;13.70;77.70
4578;DHT22;2301;47.354;8.528;2024-01-27T02:22:37;13.70;77.50
4578;DHT22;2301;47.354;8.528;2024-01-27T02:25:05;13.80;78.30
4578;DHT22;2301;47.354;8.528;2024-01-27T02:27:32;13.70;77.60
4578;DHT22;2301;47.354;8.528;2024-01-27T02:29:59;13.70;77.20
4578;DHT22;2301;47.354;8.528;2024-01-27T02:32:26;13.80;77.40
4578;DHT22;2301;47.354;8.528;2024-01-27T02:34:53;13.70;76.90
4578;DHT22;2301;47.354;8.528;2024-01-27T02:37:20;13.70;77.20
4578;DHT22;2301;47.354;8.528;2024-01-27T02:39:47;13.70;76.80
4578;DHT22;2301;47.354;8.528;2024-01-27T02:42:15;13.70;77.10
4578;DHT22;2301;47.354;8.528;2024-01-27T02:44:42;13.70;77.50
4578;DHT22;2301;47.354;8.528;2024-01-27T02:47:09;13.70;77.30
4578;DHT22;2301;47.354;8.528;2024-01-27T02:49:35;13.70;77.20
4578;DHT22;2301;47.354;8.528;2024-01-27T02:52:03;13.70;77.10
4578;DHT22;2301;47.354;8.528;2024-01-27T02:54:30;13.70;77.10
4578;DHT22;2301;47.354;8.528;2024-01-27T02:56:56;13.70;77.30
4578;DHT22;2301;47.354;8.528;2024-01-27T02:59:25;13.70;77.50
4578;DHT22;2301;47.354;8.528;2024-01-27T03:01:51;13.70;77.60
4578;DHT22;2301;47.354;8.528;2024-01-27T03:04:18;13.70;77.60
4578;DHT22;2301;47.354;8.528;2024-01-27T03:06:45;13.70;77.10
4578;DHT22;2301;47.354;8.528;2024-01-27T03:09:12;13.70;77.40
4578;DHT22;2301;47.354;8.528;2024-01-27T03:11:39;13.60;77.30
4578;DHT22;2301;47.354;8.528;2024-01-27T03:14:06;13.60;77.20
4578;DHT22;2301;47.354;8.528;2024-01-27T03:16:34;13.60;76.90
4578;DHT22;2301;47.354;8.528;2024-01-27T03:19:01;13.60;75.90
4578;DHT22;2301;47.354;8.528;2024-01-27T03:21:29;13.60;76.70
4578;DHT22;2301;47.354;8.528;2024-01-27T03:23:56;13.60;77.10
4578;DHT22;2301;47.354;8.528;2024-01-27T03:26:22;13.60;77.00
4578;DHT22;2301;47.354;8.528;2024-01-27T03:28:50;13.60;76.50
4578;DHT22;2301;47.354;8.528;2024-01-27T03:31:17;13.50;76.30
4578;DHT22;2301;47.354;8.528;2024-01-27T03:33:45;13.50;76.40
4578;DHT22;2301;47.354;8.528;2024-01-27T03:36:13;13.60;76.30
4578;DHT22;2301;47.354;8.528;2024-01-27T03:38:40;13.50;76.40
4578;DHT22;2301;47.354;8.528;2024-01-27T03:41:07;13.50;76.30
4578;DHT22;2301;47.354;8.528;2024-01-27T03:43:34;13.50;76.30
4578;DHT22;2301;47.354;8.528;2024-01-27T03:46:01;13.40;75.40
4578;DHT22;2301;47.354;8.528;2024-01-27T03:48:28;13.50;76.50
4578;DHT22;2301;47.354;8.528;2024-01-27T03:50:57;13.40;75.70
4578;DHT22;2301;47.354;8.528;2024-01-27T03:53:23;13.40;76.50
4578;DHT22;2301;47.354;8.528;2024-01-27T03:55:50;13.40;76.00
4578;DHT22;2301;47.354;8.528;2024-01-27T03:58:17;13.40;76.60
4578;DHT22;2301;47.354;8.528;2024-01-27T04:00:44;13.40;76.20
4578;DHT22;2301;47.354;8.528;2024-01-27T04:03:11;13.40;76.50
4578;DHT22;2301;47.354;8.528;2024-01-27T04:05:38;13.50;76.30
4578;DHT22;2301;47.354;8.528;2024-01-27T04:08:06;13.50;75.70
4578;DHT22;2301;47.354;8.528;2024-01-27T04:10:33;13.50;75.60
4578;DHT22;2301;47.354;8.528;2024-01-27T04:13:01;13.50;75.40
4578;DHT22;2301;47.354;8.528;2024-01-27T04:15:28;13.50;76.20
4578;DHT22;2301;47.354;8.528;2024-01-27T04:17:55;13.50;74.80
4578;DHT22;2301;47.354;8.528;2024-01-27T04:20:22;13.40;74.60
4578;DHT22;2301;47.354;8.528;2024-01-27T04:22:49;13.30;74.30
4578;DHT22;2301;47.354;8.528;2024-01-27T04:25:17;13.30;75.30
4578;DHT22;2301;47.354;8.528;2024-01-27T04:27:44;13.30;75.00
4578;DHT22;2301;47.354;8.528;2024-01-27T04:30:11;13.30;74.90
4578;DHT22;2301;47.354;8.528;2024-01-27T04:32:39;13.30;75.20
4578;DHT22;2301;47.354;8.528;2024-01-27T04:35:09;13.30;75.30
4578;DHT22;2301;47.354;8.528;2024-01-27T04:37:37;13.30;75.10
4578;DHT22;2301;47.354;8.528;2024-01-27T04:40:04;13.20;74.20
4578;DHT22;2301;47.354;8.528;2024-01-27T04:42:34;13.20;75.10
4578;DHT22;2301;47.354;8.528;2024-01-27T04:45:01;13.20;74.70
4578;DHT22;2301;47.354;8.528;2024-01-27T04:47:28;13.20;74.90
4578;DHT22;2301;47.354;8.528;2024-01-27T04:49:57;13.20;75.10
4578;DHT22;2301;47.354;8.528;2024-01-27T04:52:27;13.20;75.20
4578;DHT22;2301;47.354;8.528;2024-01-27T04:54:58;13.20;74.80
4578;DHT22;2301;47.354;8.528;2024-01-27T04:57:27;13.20;74.90
4578;DHT22;2301;47.354;8.528;2024-01-27T04:59:57;13.20;75.10
4578;DHT22;2301;47.354;8.528;2024-01-27T05:02:24;13.20;75.00
4578;DHT22;2301;47.354;8.528;2024-01-27T05:04:51;13.20;74.80
4578;DHT22;2301;47.354;8.528;2024-01-27T05:07:18;13.10;74.50
4578;DHT22;2301;47.354;8.528;2024-01-27T05:09:45;13.10;74.60
4578;DHT22;2301;47.354;8.528;2024-01-27T05:12:12;13.10;74.40
4578;DHT22;2301;47.354;8.528;2024-01-27T05:14:43;13.20;74.20
4578;DHT22;2301;47.354;8.528;2024-01-27T05:17:12;13.10;74.40
4578;DHT22;2301;47.354;8.528;2024-01-27T05:19:38;13.10;75.20
4578;DHT22;2301;47.354;8.528;2024-01-27T05:22:05;13.00;73.70
4578;DHT22;2301;47.354;8.528;2024-01-27T05:24:32;13.00;74.20
4578;DHT22;2301;47.354;8.528;2024-01-27T05:26:59;12.90;74.20
4578;DHT22;2301;47.354;8.528;2024-01-27T05:29:27;12.90;74.00
4578;DHT22;2301;47.354;8.528;2024-01-27T05:31:54;12.90;74.00
4578;DHT22;2301;47.354;8.528;2024-01-27T05:34:22;12.80;74.50
4578;DHT22;2301;47.354;8.528;2024-01-27T05:36:49;12.80;74.50
4578;DHT22;2301;47.354;8.528;2024-01-27T05:39:16;12.80;74.00
4578;DHT22;2301;47.354;8.528;2024-01-27T05:41:43;12.70;74.40
4578;DHT22;2301;47.354;8.528;2024-01-27T05:44:10;12.70;74.60
4578;DHT22;2301;47.354;8.528;2024-01-27T05:46:39;12.70;74.30
4578;DHT22;2301;47.354;8.528;2024-01-27T05:49:09;12.70;74.40
4578;DHT22;2301;47.354;8.528;2024-01-27T05:51:41;12.60;74.30
4578;DHT22;2301;47.354;8.528;2024-01-27T05:54:09;12.60;75.00
4578;DHT22;2301;47.354;8.528;2024-01-27T05:56:39;12.60;75.10
4578;DHT22;2301;47.354;8.528;2024-01-27T05:59:06;12.60;75.00
4578;DHT22;2301;47.354;8.528;2024-01-27T06:01:33;12.60;75.00
4578;DHT22;2301;47.354;8.528;2024-01-27T06:03:59;12.60;74.60
4578;DHT22;2301;47.354;8.528;2024-01-27T06:06:26;12.60;74.20
4578;DHT22;2301;47.354;8.528;2024-01-27T06:08:55;12.60;73.90
4578;DHT22;2301;47.354;8.528;2024-01-27T06:11:24;12.60;73.90
4578;DHT22;2301;47.354;8.528;2024-01-27T06:13:51;12.60;74.30
4578;DHT22;2301;47.354;8.528;2024-01-27T06:16:18;12.50;74.00
4578;DHT22;2301;47.354;8.528;2024-01-27T06:18:45;12.50;74.40
4578;DHT22;2301;47.354;8.528;2024-01-27T06:21:12;12.50;74.40
4578;DHT22;2301;47.354;8.528;2024-01-27T06:23:39;12.40;73.90
4578;DHT22;2301;47.354;8.528;2024-01-27T06:26:08;12.50;74.30
4578;DHT22;2301;47.354;8.528;2024-01-27T06:28:35;12.40;74.20
4578;DHT22;2301;47.354;8.528;2024-01-27T06:31:03;12.40;74.20
4578;DHT22;2301;47.354;8.528;2024-01-27T06:33:30;12.40;74.70
4578;DHT22;2301;47.354;8.528;2024-01-27T06:35:57;12.40;74.80
4578;DHT22;2301;47.354;8.528;2024-01-27T06:38:24;12.30;74.80
4578;DHT22;2301;47.354;8.528;2024-01-27T06:40:50;12.30;74.90
4578;DHT22;2301;47.354;8.528;2024-01-27T06:43:19;12.30;74.70
4578;DHT22;2301;47.354;8.528;2024-01-27T06:45:46;12.30;75.20
4578;DHT22;2301;47.354;8.528;2024-01-27T06:48:13;12.20;74.90
4578;DHT22;2301;47.354;8.528;2024-01-27T06:50:40;12.30;75.10
4578;DHT22;2301;47.354;8.528;2024-01-27T06:53:07;12.20;75.00
4578;DHT22;2301;47.354;8.528;2024-01-27T06:55:35;12.20;74.90
4578;DHT22;2301;47.354;8.528;2024-01-27T06:58:03;12.20;75.20
4578;DHT22;2301;47.354;8.528;2024-01-27T07:00:33;12.20;75.20
4578;DHT22;2301;47.354;8.528;2024-01-27T07:03:03;12.20;75.20
4578;DHT22;2301;47.354;8.528;2024-01-27T07:05:33;12.20;75.20
4578;DHT22;2301;47.354;8.528;2024-01-27T07:08:05;12.10;74.60
4578;DHT22;2301;47.354;8.528;2024-01-27T07:10:32;12.20;75.20
4578;DHT22;2301;47.354;8.528;2024-01-27T07:12:59;12.10;75.00
4578;DHT22;2301;47.354;8.528;2024-01-27T07:15:27;12.10;74.50
4578;DHT22;2301;47.354;8.528;2024-01-27T07:17:57;12.00;74.90
4578;DHT22;2301;47.354;8.528;2024-01-27T07:20:23;12.10;74.80
4578;DHT22;2301;47.354;8.528;2024-01-27T07:22:50;12.00;74.80
4578;DHT22;2301;47.354;8.528;2024-01-27T07:25:17;12.00;75.20
4578;DHT22;2301;47.354;8.528;2024-01-27T07:27:44;12.00;75.30
4578;DHT22;2301;47.354;8.528;2024-01-27T07:30:12;12.00;75.30
4578;DHT22;2301;47.354;8.528;2024-01-27T07:32:39;12.10;75.10
4578;DHT22;2301;47.354;8.528;2024-01-27T07:35:08;12.00;74.60
4578;DHT22;2301;47.354;8.528;2024-01-27T07:37:35;12.00;75.10
4578;DHT22;2301;47.354;8.528;2024-01-27T07:40:02;12.00;75.00
4578;DHT22;2301;47.354;8.528;2024-01-27T07:42:29;11.90;74.90
4578;DHT22;2301;47.354;8.528;2024-01-27T07:44:56;11.90;74.70
4578;DHT22;2301;47.354;8.528;2024-01-27T07:47:23;11.90;75.00
4578;DHT22;2301;47.354;8.528;2024-01-27T07:49:50;11.90;75.20
4578;DHT22;2301;47.354;8.528;2024-01-27T07:52:18;11.90;75.40
4578;DHT22;2301;47.354;8.528;2024-01-27T07:54:45;11.90;75.00
4578;DHT22;2301;47.354;8.528;2024-01-27T07:57:12;11.90;75.20
4578;DHT22;2301;47.354;8.528;2024-01-27T07:59:39;11.90;75.10
4578;DHT22;2301;47.354;8.528;2024-01-27T08:02:06;11.90;75.10
4578;DHT22;2301;47.354;8.528;2024-01-27T08:04:33;11.90;75.00
4578;DHT22;2301;47.354;8.528;2024-01-27T08:06:59;11.90;74.80
4578;DHT22;2301;47.354;8.528;2024-01-27T08:09:33;12.00;75.00
4578;DHT22;2301;47.354;8.528;2024-01-27T08:12:00;11.90;74.70
4578;DHT22;2301;47.354;8.528;2024-01-27T08:14:29;12.00;75.00
4578;DHT22;2301;47.354;8.528;2024-01-27T08:16:59;12.00;75.00
4578;DHT22;2301;47.354;8.528;2024-01-27T08:19:29;12.00;75.50
4578;DHT22;2301;47.354;8.528;2024-01-27T08:21:56;12.00;74.40
4578;DHT22;2301;47.354;8.528;2024-01-27T08:24:23;12.00;74.50
4578;DHT22;2301;47.354;8.528;2024-01-27T08:26:51;12.00;74.20
4578;DHT22;2301;47.354;8.528;2024-01-27T08:29:18;12.00;74.40
4578;DHT22;2301;47.354;8.528;2024-01-27T08:31:45;12.00;75.10
4578;DHT22;2301;47.354;8.528;2024-01-27T08:34:12;12.10;76.20
4578;DHT22;2301;47.354;8.528;2024-01-27T08:36:40;12.60;76.80
4578;DHT22;2301;47.354;8.528;2024-01-27T08:39:07;12.50;71.00
4578;DHT22;2301;47.354;8.528;2024-01-27T08:41:34;12.10;68.20
4578;DHT22;2301;47.354;8.528;2024-01-27T08:44:03;11.70;67.40
4578;DHT22;2301;47.354;8.528;2024-01-27T08:46:30;11.70;70.70
4578;DHT22;2301;47.354;8.528;2024-01-27T08:48:57;11.40;68.60
4578;DHT22;2301;47.354;8.528;2024-01-27T08:51:24;11.20;68.30
4578;DHT22;2301;47.354;8.528;2024-01-27T08:53:51;11.10;69.10
4578;DHT22;2301;47.354;8.528;2024-01-27T08:56:18;10.80;68.60
4578;DHT22;2301;47.354;8.528;2024-01-27T08:58:45;10.70;69.00
4578;DHT22;2301;47.354;8.528;2024-01-27T09:01:15;10.60;69.50
4578;DHT22;2301;47.354;8.528;2024-01-27T09:03:43;10.50;70.20
4578;DHT22;2301;47.354;8.528;2024-01-27T09:06:10;10.40;69.70
4578;DHT22;2301;47.354;8.528;2024-01-27T09:08:37;10.30;70.40
4578;DHT22;2301;47.354;8.528;2024-01-27T09:11:04;10.20;70.70
4578;DHT22;2301;47.354;8.528;2024-01-27T09:13:31;10.20;71.00
4578;DHT22;2301;47.354;8.528;2024-01-27T09:15:58;10.10;71.30
4578;DHT22;2301;47.354;8.528;2024-01-27T09:18:26;10.10;71.50
4578;DHT22;2301;47.354;8.528;2024-01-27T09:20:53;10.10;71.70
4578;DHT22;2301;47.354;8.528;2024-01-27T09:23:20;10.10;72.20
4578;DHT22;2301;47.354;8.528;2024-01-27T09:25:47;10.00;72.20
4578;DHT22;2301;47.354;8.528;2024-01-27T09:28:14;10.00;72.90
4578;DHT22;2301;47.354;8.528;2024-01-27T09:30:41;10.00;72.30
4578;DHT22;2301;47.354;8.528;2024-01-27T09:33:08;10.00;72.80
4578;DHT22;2301;47.354;8.528;2024-01-27T09:35:37;10.00;72.50
4578;DHT22;2301;47.354;8.528;2024-01-27T09:38:05;10.00;72.80
4578;DHT22;2301;47.354;8.528;2024-01-27T09:40:40;10.00;73.00
4578;DHT22;2301;47.354;8.528;2024-01-27T09:43:11;10.10;73.40
4578;DHT22;2301;47.354;8.528;2024-01-27T09:45:39;10.10;73.50
4578;DHT22;2301;47.354;8.528;2024-01-27T09:48:07;10.10;73.50
4578;DHT22;2301;47.354;8.528;2024-01-27T09:50:39;10.10;73.70
4578;DHT22;2301;47.354;8.528;2024-01-27T09:53:07;10.20;73.70
4578;DHT22;2301;47.354;8.528;2024-01-27T09:55:35;10.20;73.70
4578;DHT22;2301;47.354;8.528;2024-01-27T09:58:02;10.10;73.50
4578;DHT22;2301;47.354;8.528;2024-01-27T10:00:30;10.20;73.70
4578;DHT22;2301;47.354;8.528;2024-01-27T10:02:58;10.20;73.70
4578;DHT22;2301;47.354;8.528;2024-01-27T10:05:25;10.30;73.50
4578;DHT22;2301;47.354;8.528;2024-01-27T10:07:55;10.30;73.40
4578;DHT22;2301;47.354;8.528;2024-01-27T10:10:22;10.30;73.50
4578;DHT22;2301;47.354;8.528;2024-01-27T10:12:52;10.30;73.40
4578;DHT22;2301;47.354;8.528;2024-01-27T10:15:20;10.30;73.40
4578;DHT22;2301;47.354;8.528;2024-01-27T10:17:47;10.30;73.60
4578;DHT22;2301;47.354;8.528;2024-01-27T10:20:14;10.30;73.60
4578;DHT22;2301;47.354;8.528;2024-01-27T10:22:44;10.30;73.60
4578;DHT22;2301;47.354;8.528;2024-01-27T10:25:13;10.30;73.90
4578;DHT22;2301;47.354;8.528;2024-01-27T10:27:40;10.40;74.20
4578;DHT22;2301;47.354;8.528;2024-01-27T10:30:16;10.30;74.20
4578;DHT22;2301;47.354;8.528;2024-01-27T10:32:54;10.40;74.70
4578;DHT22;2301;47.354;8.528;2024-01-27T10:35:21;10.50;75.10
4578;DHT22;2301;47.354;8.528;2024-01-27T10:37:51;10.50;75.30
4578;DHT22;2301;47.354;8.528;2024-01-27T10:40:20;10.60;75.00
4578;DHT22;2301;47.354;8.528;2024-01-27T10:43:00;10.70;75.10
4578;DHT22;2301;47.354;8.528;2024-01-27T10:45:29;10.80;75.20
4578;DHT22;2301;47.354;8.528;2024-01-27T10:48:00;10.80;75.20
4578;DHT22;2301;47.354;8.528;2024-01-27T10:50:28;10.90;75.20
4578;DHT22;2301;47.354;8.528;2024-01-27T10:52:57;11.10;75.40
4578;DHT22;2301;47.354;8.528;2024-01-27T10:55:27;11.20;74.80
4578;DHT22;2301;47.354;8.528;2024-01-27T10:57:55;11.30;74.90
4578;DHT22;2301;47.354;8.528;2024-01-27T11:00:24;11.40;75.00
4578;DHT22;2301;47.354;8.528;2024-01-27T11:02:52;11.60;75.40
4578;DHT22;2301;47.354;8.528;2024-01-27T11:05:21;11.60;74.70
4578;DHT22;2301;47.354;8.528;2024-01-27T11:07:51;11.70;74.30
4578;DHT22;2301;47.354;8.528;2024-01-27T11:10:19;11.80;74.30
4578;DHT22;2301;47.354;8.528;2024-01-27T11:12:54;11.80;74.50
4578;DHT22;2301;47.354;8.528;2024-01-27T11:15:23;12.00;75.00
4578;DHT22;2301;47.354;8.528;2024-01-27T11:17:50;12.10;74.90
4578;DHT22;2301;47.354;8.528;2024-01-27T11:20:17;12.30;74.80
4578;DHT22;2301;47.354;8.528;2024-01-27T11:22:44;12.50;74.20
4578;DHT22;2301;47.354;8.528;2024-01-27T11:25:16;12.70;73.50
4578;DHT22;2301;47.354;8.528;2024-01-27T11:27:45;12.90;72.60
4578;DHT22;2301;47.354;8.528;2024-01-27T11:30:31;13.10;72.10
4578;DHT22;2301;47.354;8.528;2024-01-27T11:33:01;13.20;71.50
4578;DHT22;2301;47.354;8.528;2024-01-27T11:35:29;13.40;71.50
4578;DHT22;2301;47.354;8.528;2024-01-27T11:37:55;13.50;70.90
4578;DHT22;2301;47.354;8.528;2024-01-27T11:40:22;13.60;70.60
4578;DHT22;2301;47.354;8.528;2024-01-27T11:42:56;13.70;70.10
4578;DHT22;2301;47.354;8.528;2024-01-27T11:45:23;13.70;69.70
4578;DHT22;2301;47.354;8.528;2024-01-27T11:47:52;13.80;69.60
4578;DHT22;2301;47.354;8.528;2024-01-27T11:50:19;13.80;70.10
4578;DHT22;2301;47.354;8.528;2024-01-27T11:52:46;13.80;69.20
4578;DHT22;2301;47.354;8.528;2024-01-27T11:55:13;13.90;69.80
4578;DHT22;2301;47.354;8.528;2024-01-27T11:57:41;14.00;68.90
4578;DHT22;2301;47.354;8.528;2024-01-27T12:00:09;14.00;68.30
4578;DHT22;2301;47.354;8.528;2024-01-27T12:02:36;14.10;68.20
4578;DHT22;2301;47.354;8.528;2024-01-27T12:05:06;14.30;68.80
4578;DHT22;2301;47.354;8.528;2024-01-27T12:07:33;14.30;67.90
4578;DHT22;2301;47.354;8.528;2024-01-27T12:10:00;14.30;67.90
4578;DHT22;2301;47.354;8.528;2024-01-27T12:12:27;14.40;68.00
4578;DHT22;2301;47.354;8.528;2024-01-27T12:14:54;14.50;67.90
4578;DHT22;2301;47.354;8.528;2024-01-27T12:17:22;14.60;67.60
4578;DHT22;2301;47.354;8.528;2024-01-27T12:19:50;14.80;67.30
4578;DHT22;2301;47.354;8.528;2024-01-27T12:22:24;14.90;67.00
4578;DHT22;2301;47.354;8.528;2024-01-27T12:24:52;14.90;66.80
4578;DHT22;2301;47.354;8.528;2024-01-27T12:27:19;15.00;66.80
4578;DHT22;2301;47.354;8.528;2024-01-27T12:29:47;15.10;66.50
4578;DHT22;2301;47.354;8.528;2024-01-27T12:32:15;15.20;66.20
4578;DHT22;2301;47.354;8.528;2024-01-27T12:34:42;15.30;66.00
4578;DHT22;2301;47.354;8.528;2024-01-27T12:37:11;15.30;66.10
4578;DHT22;2301;47.354;8.528;2024-01-27T12:39:42;15.40;66.20
4578;DHT22;2301;47.354;8.528;2024-01-27T12:42:10;15.50;66.10
4578;DHT22;2301;47.354;8.528;2024-01-27T12:44:37;15.60;65.40
4578;DHT22;2301;47.354;8.528;2024-01-27T12:47:05;15.60;64.60
4578;DHT22;2301;47.354;8.528;2024-01-27T12:49:32;15.70;64.50
4578;DHT22;2301;47.354;8.528;2024-01-27T12:51:59;15.70;63.90
4578;DHT22;2301;47.354;8.528;2024-01-27T12:54:26;15.80;64.40
4578;DHT22;2301;47.354;8.528;2024-01-27T12:56:55;15.70;63.70
4578;DHT22;2301;47.354;8.528;2024-01-27T12:59:22;15.80;63.50
4578;DHT22;2301;47.354;8.528;2024-01-27T13:01:50;15.80;62.90
4578;DHT22;2301;47.354;8.528;2024-01-27T13:04:16;15.70;62.50
4578;DHT22;2301;47.354;8.528;2024-01-27T13:06:43;15.60;61.70
4578;DHT22;2301;47.354;8.528;2024-01-27T13:09:10;15.70;62.80
4578;DHT22;2301;47.354;8.528;2024-01-27T13:11:38;15.80;62.90
4578;DHT22;2301;47.354;8.528;2024-01-27T13:14:06;15.80;62.90
4578;DHT22;2301;47.354;8.528;2024-01-27T13:16:35;15.80;62.30
4578;DHT22;2301;47.354;8.528;2024-01-27T13:19:02;15.80;62.20
4578;DHT22;2301;47.354;8.528;2024-01-27T13:21:29;15.80;62.10
4578;DHT22;2301;47.354;8.528;2024-01-27T13:23:55;15.80;62.50
4578;DHT22;2301;47.354;8.528;2024-01-27T13:26:22;15.70;61.70
4578;DHT22;2301;47.354;8.528;2024-01-27T13:28:49;15.70;62.40
4578;DHT22;2301;47.354;8.528;2024-01-27T13:31:18;15.80;62.90
4578;DHT22;2301;47.354;8.528;2024-01-27T13:33:45;15.80;62.70
4578;DHT22;2301;47.354;8.528;2024-01-27T13:36:12;15.80;62.30
4578;DHT22;2301;47.354;8.528;2024-01-27T13:38:39;15.80;61.70
4578;DHT22;2301;47.354;8.528;2024-01-27T13:41:06;15.80;61.40
4578;DHT22;2301;47.354;8.528;2024-01-27T13:43:33;15.80;61.80
4578;DHT22;2301;47.354;8.528;2024-01-27T13:46:00;15.80;62.10
4578;DHT22;2301;47.354;8.528;2024-01-27T13:48:28;15.90;62.40
4578;DHT22;2301;47.354;8.528;2024-01-27T13:50:55;15.90;61.80
4578;DHT22;2301;47.354;8.528;2024-01-27T13:53:22;15.90;61.80
4578;DHT22;2301;47.354;8.528;2024-01-27T13:55:49;15.90;61.60
4578;DHT22;2301;47.354;8.528;2024-01-27T13:58:17;15.90;62.30
4578;DHT22;2301;47.354;8.528;2024-01-27T14:00:44;15.90;61.80
4578;DHT22;2301;47.354;8.528;2024-01-27T14:03:11;15.90;62.20
4578;DHT22;2301;47.354;8.528;2024-01-27T14:05:40;15.90;62.00
4578;DHT22;2301;47.354;8.528;2024-01-27T14:08:08;15.90;62.00
4578;DHT22;2301;47.354;8.528;2024-01-27T14:10:36;15.80;61.60
4578;DHT22;2301;47.354;8.528;2024-01-27T14:13:03;15.80;60.80
4578;DHT22;2301;47.354;8.528;2024-01-27T14:15:34;15.60;60.60
4578;DHT22;2301;47.354;8.528;2024-01-27T14:18:01;15.50;60.10
4578;DHT22;2301;47.354;8.528;2024-01-27T14:20:29;15.50;61.90
4578;DHT22;2301;47.354;8.528;2024-01-27T14:22:59;15.40;61.30
4578;DHT22;2301;47.354;8.528;2024-01-27T14:25:26;15.40;61.30
4578;DHT22;2301;47.354;8.528;2024-01-27T14:27:55;15.40;61.40
4578;DHT22;2301;47.354;8.528;2024-01-27T14:30:25;15.40;61.50
4578;DHT22;2301;47.354;8.528;2024-01-27T14:32:53;15.40;61.70
4578;DHT22;2301;47.354;8.528;2024-01-27T14:35:20;15.30;61.10
4578;DHT22;2301;47.354;8.528;2024-01-27T14:37:47;15.30;61.80
4578;DHT22;2301;47.354;8.528;2024-01-27T14:40:15;15.20;62.10
4578;DHT22;2301;47.354;8.528;2024-01-27T14:42:44;15.10;61.30
4578;DHT22;2301;47.354;8.528;2024-01-27T14:45:12;15.10;62.20
4578;DHT22;2301;47.354;8.528;2024-01-27T14:47:39;15.10;62.90
4578;DHT22;2301;47.354;8.528;2024-01-27T14:50:08;15.10;62.30
4578;DHT22;2301;47.354;8.528;2024-01-27T14:52:39;15.10;62.30
4578;DHT22;2301;47.354;8.528;2024-01-27T14:55:09;15.00;62.10
4578;DHT22;2301;47.354;8.528;2024-01-27T14:57:42;14.90;62.00
4578;DHT22;2301;47.354;8.528;2024-01-27T15:00:10;14.80;62.10
4578;DHT22;2301;47.354;8.528;2024-01-27T15:02:40;14.80;62.30
4578;DHT22;2301;47.354;8.528;2024-01-27T15:05:07;14.70;62.40
4578;DHT22;2301;47.354;8.528;2024-01-27T15:07:34;14.70;62.50
4578;DHT22;2301;47.354;8.528;2024-01-27T15:10:01;14.60;62.70
4578;DHT22;2301;47.354;8.528;2024-01-27T15:12:28;14.60;63.00
4578;DHT22;2301;47.354;8.528;2024-01-27T15:14:57;14.50;62.80
4578;DHT22;2301;47.354;8.528;2024-01-27T15:17:24;14.50;62.40
4578;DHT22;2301;47.354;8.528;2024-01-27T15:19:51;14.40;62.30
4578;DHT22;2301;47.354;8.528;2024-01-27T15:22:18;14.30;62.20
4578;DHT22;2301;47.354;8.528;2024-01-27T15:24:45;14.20;61.90
4578;DHT22;2301;47.354;8.528;2024-01-27T15:27:12;14.20;62.50
4578;DHT22;2301;47.354;8.528;2024-01-27T15:29:39;14.10;62.60
4578;DHT22;2301;47.354;8.528;2024-01-27T15:32:08;14.00;62.30
4578;DHT22;2301;47.354;8.528;2024-01-27T15:34:35;13.90;62.30
4578;DHT22;2301;47.354;8.528;2024-01-27T15:37:02;13.80;62.60
4578;DHT22;2301;47.354;8.528;2024-01-27T15:39:30;13.80;62.60
4578;DHT22;2301;47.354;8.528;2024-01-27T15:41:56;13.70;62.70
4578;DHT22;2301;47.354;8.528;2024-01-27T15:44:27;13.60;62.80
4578;DHT22;2301;47.354;8.528;2024-01-27T15:46:54;13.50;63.20
4578;DHT22;2301;47.354;8.528;2024-01-27T15:49:26;13.40;63.30
4578;DHT22;2301;47.354;8.528;2024-01-27T15:51:56;13.30;63.40
4578;DHT22;2301;47.354;8.528;2024-01-27T15:54:26;13.20;63.70
4578;DHT22;2301;47.354;8.528;2024-01-27T15:56:53;13.10;64.00
4578;DHT22;2301;47.354;8.528;2024-01-27T15:59:20;13.10;64.20
4578;DHT22;2301;47.354;8.528;2024-01-27T16:01:47;13.00;64.40
4578;DHT22;2301;47.354;8.528;2024-01-27T16:04:14;12.90;64.60